createdAt,value
2018-04-07T00:00:07.366Z,11.58
2018-04-07T00:02:35.792Z,11.62
2018-04-07T00:05:05.585Z,11.56
2018-04-07T00:07:33.879Z,11.57
2018-04-07T00:10:09.139Z,11.62
2018-04-07T00:12:37.705Z,11.60
2018-04-07T00:15:05.976Z,11.51
2018-04-07T00:17:34.248Z,11.54
2018-04-07T00:20:06.329Z,11.59
2018-04-07T00:22:34.605Z,11.15
2018-04-07T00:25:06.589Z,11.53
2018-04-07T00:27:34.921Z,11.40
2018-04-07T00:30:06.888Z,11.32
2018-04-07T00:32:35.628Z,11.35
2018-04-07T00:35:06.425Z,11.27
2018-04-07T00:37:34.948Z,11.26
2018-04-07T00:40:06.938Z,11.22
2018-04-07T00:42:35.209Z,11.19
2018-04-07T00:45:07.368Z,11.21
2018-04-07T00:47:35.705Z,11.09
2018-04-07T00:50:08.837Z,11.00
2018-04-07T00:52:49.303Z,10.79
2018-04-07T00:55:17.592Z,10.77
2018-04-07T00:57:45.869Z,10.73
2018-04-07T01:00:14.174Z,10.73
2018-04-07T01:02:42.621Z,10.70
2018-04-07T01:05:10.973Z,10.65
2018-04-07T01:07:39.534Z,10.54
2018-04-07T01:10:07.843Z,10.43
2018-04-07T01:12:36.352Z,10.49
2018-04-07T01:15:06.275Z,10.56
2018-04-07T01:17:34.574Z,10.58
2018-04-07T01:20:05.887Z,10.51
2018-04-07T01:22:34.208Z,10.52
2018-04-07T01:25:06.052Z,10.50
2018-04-07T01:27:34.611Z,10.45
2018-04-07T01:30:06.176Z,10.43
2018-04-07T01:32:34.495Z,10.43
2018-04-07T01:35:06.490Z,10.45
2018-04-07T01:37:34.789Z,10.50
2018-04-07T01:40:05.824Z,10.42
2018-04-07T01:42:34.392Z,10.44
2018-04-07T01:45:06.476Z,10.43
2018-04-07T01:47:34.786Z,10.43
2018-04-07T01:50:06.898Z,10.38
2018-04-07T01:52:35.200Z,10.36
2018-04-07T01:55:07.219Z,10.37
2018-04-07T01:57:35.527Z,10.37
2018-04-07T02:00:07.552Z,10.31
2018-04-07T02:02:36.519Z,10.26
2018-04-07T02:05:05.850Z,10.23
2018-04-07T02:07:34.136Z,10.25
2018-04-07T02:10:05.652Z,10.22
2018-04-07T02:12:33.930Z,10.25
2018-04-07T02:15:06.341Z,10.28
2018-04-07T02:17:34.621Z,10.30
2018-04-07T02:20:06.771Z,10.33
2018-04-07T02:22:35.046Z,10.30
2018-04-07T02:25:06.382Z,10.31
2018-04-07T02:27:34.655Z,10.34
2018-04-07T02:30:06.101Z,10.26
2018-04-07T02:32:34.381Z,9.98
2018-04-07T02:35:08.352Z,10.26
2018-04-07T02:37:36.902Z,10.11
2018-04-07T02:40:06.134Z,10.19
2018-04-07T02:42:34.484Z,10.14
2018-04-07T02:45:05.825Z,10.16
2018-04-07T02:47:34.130Z,10.03
2018-04-07T02:50:05.991Z,10.10
2018-04-07T02:52:34.256Z,10.16
2018-04-07T02:55:09.554Z,9.92
2018-04-07T02:57:37.828Z,10.02
2018-04-07T03:00:06.126Z,10.01
2018-04-07T03:02:34.413Z,9.88
2018-04-07T03:05:06.509Z,9.83
2018-04-07T03:07:34.784Z,9.63
2018-04-07T03:10:05.994Z,9.67
2018-04-07T03:12:34.305Z,9.57
2018-04-07T03:15:05.796Z,9.52
2018-04-07T03:17:34.119Z,9.58
2018-04-07T03:20:06.426Z,9.57
2018-04-07T03:22:34.894Z,9.54
2018-04-07T03:25:06.352Z,9.52
2018-04-07T03:27:35.009Z,9.49
2018-04-07T03:30:06.760Z,9.47
2018-04-07T03:32:35.216Z,9.58
2018-04-07T03:35:07.145Z,9.62
2018-04-07T03:37:35.424Z,9.66
2018-04-07T03:40:06.620Z,9.68
2018-04-07T03:42:34.904Z,9.60
2018-04-07T03:45:07.101Z,9.77
2018-04-07T03:47:35.425Z,9.80
2018-04-07T03:50:08.242Z,9.80
2018-04-07T03:52:36.547Z,9.76
2018-04-07T03:55:07.737Z,9.81
2018-04-07T03:57:36.683Z,9.85
2018-04-07T04:00:06.327Z,9.81
2018-04-07T04:02:34.616Z,9.84
2018-04-07T04:05:05.889Z,9.82
2018-04-07T04:07:34.459Z,9.74
2018-04-07T04:10:06.569Z,9.76
2018-04-07T04:12:34.839Z,9.76
2018-04-07T04:15:06.033Z,9.65
2018-04-07T04:17:34.490Z,9.65
2018-04-07T04:20:08.514Z,9.66
2018-04-07T04:22:36.779Z,9.56
2018-04-07T04:25:06.349Z,9.59
2018-04-07T04:27:34.604Z,9.53
2018-04-07T04:30:06.726Z,9.38
2018-04-07T04:32:35.002Z,9.34
2018-04-07T04:35:07.190Z,9.36
2018-04-07T04:37:35.469Z,9.36
2018-04-07T04:40:07.458Z,9.37
2018-04-07T04:42:35.777Z,9.34
2018-04-07T04:45:08.075Z,9.34
2018-04-07T04:47:36.583Z,9.37
2018-04-07T04:50:05.994Z,9.39
2018-04-07T04:52:34.338Z,9.37
2018-04-07T04:55:06.158Z,9.36
2018-04-07T04:57:38.952Z,9.34
2018-04-07T05:00:07.262Z,9.31
2018-04-07T05:02:35.552Z,9.36
2018-04-07T05:05:07.067Z,9.34
2018-04-07T05:07:35.585Z,9.42
2018-04-07T05:10:07.297Z,9.43
2018-04-07T05:12:35.596Z,9.42
2018-04-07T05:15:07.838Z,9.46
2018-04-07T05:17:36.309Z,9.39
2018-04-07T05:20:06.016Z,9.42
2018-04-07T05:22:34.297Z,9.45
2018-04-07T05:25:06.189Z,9.48
2018-04-07T05:27:35.240Z,9.53
2018-04-07T05:30:08.061Z,9.58
2018-04-07T05:32:36.356Z,9.64
2018-04-07T05:35:07.716Z,9.72
2018-04-07T05:37:36.387Z,9.69
2018-04-07T05:40:07.031Z,9.74
2018-04-07T05:42:35.317Z,9.85
2018-04-07T05:45:06.920Z,9.86
2018-04-07T05:47:35.212Z,10.27
2018-04-07T05:50:07.584Z,10.52
2018-04-07T05:52:35.867Z,10.70
2018-04-07T05:55:07.825Z,11.02
2018-04-07T05:57:36.092Z,11.13
2018-04-07T06:00:05.943Z,11.08
2018-04-07T06:02:34.222Z,11.25
2018-04-07T06:05:06.378Z,11.37
2018-04-07T06:07:35.138Z,11.77
2018-04-07T06:10:06.853Z,12.00
2018-04-07T06:12:35.134Z,11.92
2018-04-07T06:15:07.172Z,12.08
2018-04-07T06:17:35.513Z,12.43
2018-04-07T06:20:05.999Z,13.13
2018-04-07T06:22:34.272Z,12.64
2018-04-07T06:25:06.459Z,12.70
2018-04-07T06:27:34.744Z,13.01
2018-04-07T06:30:06.175Z,13.29
2018-04-07T06:32:34.446Z,13.25
2018-04-07T06:35:05.986Z,13.72
2018-04-07T06:37:34.262Z,13.93
2018-04-07T06:40:05.724Z,14.28
2018-04-07T06:42:34.174Z,15.13
2018-04-07T06:45:05.649Z,13.48
2018-04-07T06:47:33.928Z,13.91
2018-04-07T06:50:06.200Z,14.39
2018-04-07T06:52:34.500Z,14.08
2018-04-07T06:55:06.273Z,13.25
2018-04-07T06:57:34.505Z,13.87
2018-04-07T07:00:09.544Z,14.05
2018-04-07T07:02:38.264Z,14.43
2018-04-07T07:05:06.527Z,14.57
2018-04-07T07:07:35.053Z,15.30
2018-04-07T07:10:06.056Z,14.76
2018-04-07T07:12:34.385Z,14.87
2018-04-07T07:15:06.142Z,14.84
2018-04-07T07:17:34.446Z,14.59
2018-04-07T07:20:08.528Z,14.87
2018-04-07T07:22:36.830Z,14.69
2018-04-07T07:25:06.136Z,14.73
2018-04-07T07:27:34.464Z,14.52
2018-04-07T07:30:06.405Z,14.72
2018-04-07T07:32:34.716Z,15.25
2018-04-07T07:35:07.022Z,14.89
2018-04-07T07:37:35.319Z,15.48
2018-04-07T07:40:07.170Z,15.90
2018-04-07T07:42:35.467Z,16.72
2018-04-07T07:45:07.413Z,16.69
2018-04-07T07:47:35.736Z,16.01
2018-04-07T07:50:07.773Z,16.76
2018-04-07T07:52:36.048Z,16.73
2018-04-07T07:55:08.025Z,15.82
2018-04-07T07:57:36.290Z,17.51
2018-04-07T08:00:06.397Z,17.56
2018-04-07T08:02:34.717Z,17.58
2018-04-07T08:05:07.158Z,18.24
2018-04-07T08:07:35.446Z,17.55
2018-04-07T08:10:07.187Z,17.67
2018-04-07T08:12:35.565Z,17.80
2018-04-07T08:15:06.104Z,18.36
2018-04-07T08:17:34.444Z,18.29
2018-04-07T08:20:05.937Z,18.18
2018-04-07T08:22:34.223Z,17.45
2018-04-07T08:25:05.546Z,17.95
2018-04-07T08:27:33.841Z,18.24
2018-04-07T08:30:08.705Z,17.97
2018-04-07T08:32:36.989Z,18.22
2018-04-07T08:35:07.133Z,18.77
2018-04-07T08:37:35.422Z,18.88
2018-04-07T08:40:07.575Z,18.87
2018-04-07T08:42:36.084Z,19.28
2018-04-07T08:45:07.820Z,18.50
2018-04-07T08:47:36.136Z,19.06
2018-04-07T08:50:06.234Z,19.33
2018-04-07T08:52:34.532Z,19.14
2018-04-07T08:55:06.526Z,18.39
2018-04-07T08:57:34.801Z,17.74
2018-04-07T09:00:08.766Z,19.11
2018-04-07T09:02:37.110Z,18.66
2018-04-07T09:05:07.221Z,19.09
2018-04-07T09:07:35.506Z,19.05
2018-04-07T09:10:06.200Z,20.06
2018-04-07T09:12:34.692Z,19.14
2018-04-07T09:15:06.079Z,19.44
2018-04-07T09:17:34.396Z,19.72
2018-04-07T09:20:05.938Z,19.34
2018-04-07T09:22:34.294Z,19.19
2018-04-07T09:25:06.030Z,19.73
2018-04-07T09:27:34.337Z,19.88
2018-04-07T09:30:09.200Z,19.63
2018-04-07T09:32:37.726Z,19.21
2018-04-07T09:35:06.792Z,20.06
2018-04-07T09:37:35.089Z,19.43
2018-04-07T09:40:06.313Z,20.30
2018-04-07T09:42:34.588Z,21.39
2018-04-07T09:45:06.312Z,20.81
2018-04-07T09:47:34.599Z,21.80
2018-04-07T09:50:06.005Z,22.54
2018-04-07T09:52:34.289Z,23.29
2018-04-07T09:55:05.977Z,22.02
2018-04-07T09:57:34.493Z,21.77
2018-04-07T10:00:05.927Z,22.10
2018-04-07T10:02:36.007Z,21.74
2018-04-07T10:05:07.639Z,21.93
2018-04-07T10:07:35.949Z,22.38
2018-04-07T10:10:07.826Z,21.96
2018-04-07T10:12:36.118Z,21.31
2018-04-07T10:15:07.844Z,21.08
2018-04-07T10:17:36.505Z,20.10
2018-04-07T10:20:06.470Z,19.58
2018-04-07T10:22:34.759Z,20.38
2018-04-07T10:25:06.925Z,21.30
2018-04-07T10:27:35.826Z,21.58
2018-04-07T10:30:07.205Z,21.06
2018-04-07T10:32:35.489Z,21.50
2018-04-07T10:35:07.358Z,21.32
2018-04-07T10:37:35.652Z,20.80
2018-04-07T10:40:07.593Z,21.13
2018-04-07T10:42:35.986Z,21.05
2018-04-07T10:45:07.941Z,22.52
2018-04-07T10:47:36.389Z,22.26
2018-04-07T10:50:06.261Z,21.83
2018-04-07T10:52:34.572Z,23.05
2018-04-07T10:55:06.567Z,22.84
2018-04-07T10:57:35.060Z,23.33
2018-04-07T11:00:07.321Z,23.12
2018-04-07T11:02:35.624Z,22.95
2018-04-07T11:05:06.245Z,22.91
2018-04-07T11:07:35.422Z,23.29
2018-04-07T11:10:07.058Z,23.83
2018-04-07T11:12:35.399Z,23.87
2018-04-07T11:15:07.225Z,24.00
2018-04-07T11:17:36.677Z,23.80
2018-04-07T11:20:08.172Z,24.04
2018-04-07T11:22:36.564Z,23.99
2018-04-07T11:25:08.043Z,24.02
2018-04-07T11:27:36.345Z,23.75
2018-04-07T11:30:06.291Z,23.36
2018-04-07T11:32:34.852Z,23.33
2018-04-07T11:35:06.344Z,24.93
2018-04-07T11:37:34.685Z,23.93
2018-04-07T11:40:06.192Z,25.04
2018-04-07T11:42:34.492Z,24.48
2018-04-07T11:45:09.582Z,25.31
2018-04-07T11:47:38.404Z,24.94
2018-04-07T11:50:07.493Z,25.22
2018-04-07T11:52:36.117Z,25.99
2018-04-07T11:55:07.366Z,25.14
2018-04-07T11:57:35.640Z,23.20
2018-04-07T12:00:07.677Z,23.56
2018-04-07T12:02:35.984Z,23.11
2018-04-07T12:05:07.246Z,23.01
2018-04-07T12:07:35.645Z,24.06
2018-04-07T12:10:07.661Z,23.61
2018-04-07T12:12:35.935Z,23.11
2018-04-07T12:15:07.466Z,23.13
2018-04-07T12:17:35.757Z,24.87
2018-04-07T12:20:07.081Z,25.34
2018-04-07T12:22:35.359Z,24.59
2018-04-07T12:25:07.548Z,25.20
2018-04-07T12:27:35.865Z,25.20
2018-04-07T12:30:07.997Z,23.03
2018-04-07T12:32:36.300Z,22.88
2018-04-07T12:35:08.572Z,22.32
2018-04-07T12:37:37.202Z,22.80
2018-04-07T12:40:06.606Z,23.16
2018-04-07T12:42:34.907Z,23.75
2018-04-07T12:45:06.370Z,23.84
2018-04-07T12:47:34.673Z,24.01
2018-04-07T12:50:06.165Z,22.67
2018-04-07T12:52:34.548Z,22.77
2018-04-07T12:55:07.805Z,23.01
2018-04-07T12:57:36.092Z,23.15
2018-04-07T13:00:08.489Z,23.78
2018-04-07T13:02:36.828Z,22.94
2018-04-07T13:05:06.892Z,22.93
2018-04-07T13:07:35.181Z,23.01
2018-04-07T13:10:06.729Z,22.98
2018-04-07T13:12:35.022Z,23.04
2018-04-07T13:15:07.684Z,22.87
2018-04-07T13:17:35.989Z,23.71
2018-04-07T13:20:07.426Z,23.92
2018-04-07T13:22:36.015Z,24.15
2018-04-07T13:25:06.585Z,23.30
2018-04-07T13:27:34.860Z,23.93
2018-04-07T13:30:06.683Z,24.23
2018-04-07T13:32:35.000Z,24.45
2018-04-07T13:35:09.044Z,24.09
2018-04-07T13:37:37.386Z,24.20
2018-04-07T13:40:06.740Z,24.28
2018-04-07T13:42:35.041Z,24.31
2018-04-07T13:45:06.536Z,24.54
2018-04-07T13:47:34.816Z,24.58
2018-04-07T13:50:06.596Z,24.52
2018-04-07T13:52:34.871Z,23.81
2018-04-07T13:55:07.118Z,24.16
2018-04-07T13:57:35.389Z,24.05
2018-04-07T14:00:06.717Z,24.18
2018-04-07T14:02:35.004Z,24.16
2018-04-07T14:05:06.823Z,24.39
2018-04-07T14:07:35.118Z,24.54
2018-04-07T14:10:06.496Z,24.61
2018-04-07T14:12:34.986Z,24.38
2018-04-07T14:15:06.369Z,24.47
2018-04-07T14:17:34.906Z,24.35
2018-04-07T14:20:06.946Z,24.39
2018-04-07T14:22:35.343Z,24.47
2018-04-07T14:25:07.298Z,24.52
2018-04-07T14:27:35.581Z,24.54
2018-04-07T14:30:07.560Z,24.69
2018-04-07T14:32:36.274Z,24.60
2018-04-07T14:35:06.440Z,24.80
2018-04-07T14:37:36.614Z,24.84
2018-04-07T14:40:08.316Z,24.39
2018-04-07T14:42:36.596Z,24.45
2018-04-07T14:45:07.005Z,24.54
2018-04-07T14:47:35.302Z,24.48
2018-04-07T14:50:07.150Z,24.51
2018-04-07T14:52:35.437Z,24.17
2018-04-07T14:55:07.345Z,24.33
2018-04-07T14:57:35.666Z,23.97
2018-04-07T15:00:05.701Z,23.95
2018-04-07T15:02:34.036Z,24.05
2018-04-07T15:05:05.620Z,23.98
2018-04-07T15:07:33.941Z,24.15
2018-04-07T15:10:05.807Z,24.04
2018-04-07T15:12:34.098Z,24.13
2018-04-07T15:15:05.524Z,24.26
2018-04-07T15:17:34.207Z,24.24
2018-04-07T15:20:05.544Z,24.23
2018-04-07T15:22:33.926Z,24.19
2018-04-07T15:25:05.813Z,24.18
2018-04-07T15:27:34.110Z,24.26
2018-04-07T15:30:06.242Z,24.10
2018-04-07T15:32:34.573Z,23.98
2018-04-07T15:35:06.612Z,24.10
2018-04-07T15:37:34.974Z,24.16
2018-04-07T15:40:07.004Z,24.00
2018-04-07T15:42:35.323Z,23.94
2018-04-07T15:45:07.760Z,24.10
2018-04-07T15:47:36.064Z,24.06
2018-04-07T15:50:05.907Z,24.02
2018-04-07T15:52:34.677Z,24.10
2018-04-07T15:55:06.381Z,23.94
2018-04-07T15:57:35.142Z,24.00
2018-04-07T16:00:05.578Z,24.07
2018-04-07T16:02:33.852Z,24.03
2018-04-07T16:05:08.115Z,23.93
2018-04-07T16:07:36.828Z,23.85
2018-04-07T16:10:09.649Z,23.90
2018-04-07T16:12:37.947Z,23.89
2018-04-07T16:15:06.428Z,23.77
2018-04-07T16:17:34.721Z,23.80
2018-04-07T16:20:22.587Z,23.68
2018-04-07T16:22:50.850Z,23.67
2018-04-07T16:25:19.769Z,23.63
2018-04-07T16:27:48.098Z,23.57
2018-04-07T16:30:16.424Z,23.62
2018-04-07T16:32:44.697Z,23.64
2018-04-07T16:35:12.993Z,23.63
2018-04-07T16:37:41.290Z,23.53
2018-04-07T16:40:09.613Z,23.51
2018-04-07T16:42:37.886Z,23.53
2018-04-07T16:45:06.161Z,23.38
2018-04-07T16:47:34.465Z,23.43
2018-04-07T16:50:06.720Z,23.46
2018-04-07T16:52:35.074Z,23.43
2018-04-07T16:55:06.854Z,23.47
2018-04-07T16:57:35.150Z,23.33
2018-04-07T17:00:07.103Z,23.24
2018-04-07T17:02:35.401Z,23.24
2018-04-07T17:05:07.423Z,23.20
2018-04-07T17:07:35.732Z,23.07
2018-04-07T17:10:05.662Z,22.93
2018-04-07T17:12:34.012Z,22.94
2018-04-07T17:15:05.607Z,22.89
2018-04-07T17:17:33.897Z,22.92
2018-04-07T17:20:07.892Z,22.80
2018-04-07T17:22:36.375Z,22.71
2018-04-07T17:25:05.925Z,22.63
2018-04-07T17:27:34.503Z,22.62
2018-04-07T17:30:05.693Z,22.58
2018-04-07T17:32:34.026Z,22.55
2018-04-07T17:35:05.945Z,22.37
2018-04-07T17:37:34.234Z,22.35
2018-04-07T17:40:05.785Z,22.22
2018-04-07T17:42:34.108Z,22.19
2018-04-07T17:45:06.021Z,22.03
2018-04-07T17:47:34.301Z,22.10
2018-04-07T17:50:06.672Z,22.02
2018-04-07T17:52:35.173Z,21.92
2018-04-07T17:55:05.756Z,21.96
2018-04-07T17:57:34.028Z,21.93
2018-04-07T18:00:09.315Z,21.80
2018-04-07T18:02:39.048Z,21.69
2018-04-07T18:05:07.329Z,21.43
2018-04-07T18:07:35.627Z,21.29
2018-04-07T18:10:07.498Z,21.30
2018-04-07T18:12:35.791Z,21.24
2018-04-07T18:15:05.721Z,21.21
2018-04-07T18:17:34.013Z,21.23
2018-04-07T18:20:06.539Z,21.04
2018-04-07T18:22:34.805Z,20.99
2018-04-07T18:25:06.773Z,20.95
2018-04-07T18:27:35.355Z,20.95
2018-04-07T18:30:07.309Z,20.79
2018-04-07T18:32:35.546Z,20.79
2018-04-07T18:35:07.568Z,20.70
2018-04-07T18:37:35.843Z,20.49
2018-04-07T18:40:06.155Z,20.55
2018-04-07T18:42:34.426Z,20.53
2018-04-07T18:45:05.788Z,20.44
2018-04-07T18:47:34.096Z,20.57
2018-04-07T18:50:06.048Z,20.61
2018-04-07T18:52:34.408Z,20.60
2018-04-07T18:55:08.590Z,20.54
2018-04-07T18:57:36.866Z,20.47
2018-04-07T19:00:06.200Z,20.41
2018-04-07T19:02:34.475Z,20.32
2018-04-07T19:05:06.419Z,20.35
2018-04-07T19:07:34.750Z,20.28
2018-04-07T19:10:06.785Z,20.19
2018-04-07T19:12:35.075Z,20.19
2018-04-07T19:15:05.873Z,20.16
2018-04-07T19:17:34.957Z,20.16
2018-04-07T19:20:06.594Z,20.09
2018-04-07T19:22:34.900Z,20.13
2018-04-07T19:25:07.158Z,20.19
2018-04-07T19:27:35.428Z,20.12
2018-04-07T19:30:07.097Z,20.10
2018-04-07T19:32:36.413Z,20.05
2018-04-07T19:35:06.834Z,20.07
2018-04-07T19:37:35.085Z,20.02
2018-04-07T19:40:07.009Z,19.98
2018-04-07T19:42:35.306Z,19.85
2018-04-07T19:45:07.929Z,19.89
2018-04-07T19:47:36.237Z,19.83
2018-04-07T19:50:06.244Z,19.78
2018-04-07T19:52:35.168Z,19.75
2018-04-07T19:55:06.745Z,19.72
2018-04-07T19:57:35.037Z,19.66
2018-04-07T20:00:07.042Z,19.59
2018-04-07T20:02:35.617Z,19.53
2018-04-07T20:05:08.074Z,19.37
2018-04-07T20:07:36.370Z,19.33
2018-04-07T20:10:06.095Z,19.25
2018-04-07T20:12:34.409Z,19.15
2018-04-07T20:15:06.545Z,19.05
2018-04-07T20:17:35.129Z,18.93
2018-04-07T20:20:06.871Z,18.70
2018-04-07T20:22:35.178Z,18.72
2018-04-07T20:25:05.871Z,18.71
2018-04-07T20:27:34.183Z,18.56
2018-04-07T20:30:07.367Z,18.46
2018-04-07T20:32:35.627Z,18.30
2018-04-07T20:35:07.751Z,18.00
2018-04-07T20:37:36.036Z,17.71
2018-04-07T20:40:09.096Z,17.68
2018-04-07T20:42:37.386Z,17.58
2018-04-07T20:45:05.924Z,17.57
2018-04-07T20:47:34.210Z,17.66
2018-04-07T20:50:09.294Z,17.66
2018-04-07T20:52:37.622Z,17.55
2018-04-07T20:55:05.975Z,17.48
2018-04-07T20:57:34.265Z,17.59
2018-04-07T21:00:05.743Z,17.66
2018-04-07T21:02:34.017Z,17.55
2018-04-07T21:05:05.308Z,17.52
2018-04-07T21:07:33.824Z,17.46
2018-04-07T21:10:08.962Z,17.49
2018-04-07T21:12:37.229Z,17.47
2018-04-07T21:15:06.430Z,17.16
2018-04-07T21:17:34.978Z,17.24
2018-04-07T21:20:06.779Z,17.15
2018-04-07T21:22:35.079Z,17.15
2018-04-07T21:25:07.007Z,17.18
2018-04-07T21:27:35.313Z,17.21
2018-04-07T21:30:07.529Z,17.28
2018-04-07T21:32:35.825Z,17.28
2018-04-07T21:35:07.021Z,17.16
2018-04-07T21:37:35.329Z,16.99
2018-04-07T21:40:06.505Z,16.78
2018-04-07T21:42:34.799Z,16.58
2018-04-07T21:45:07.035Z,16.45
2018-04-07T21:47:35.358Z,16.15
2018-04-07T21:50:05.880Z,16.06
2018-04-07T21:52:34.248Z,15.95
2018-04-07T21:55:07.465Z,15.91
2018-04-07T21:57:35.785Z,15.87
2018-04-07T22:00:06.984Z,15.88
2018-04-07T22:02:35.431Z,15.76
2018-04-07T22:05:07.489Z,15.64
2018-04-07T22:07:35.790Z,15.75
2018-04-07T22:10:08.008Z,15.68
2018-04-07T22:12:36.552Z,15.89
2018-04-07T22:15:06.392Z,15.82
2018-04-07T22:17:34.668Z,15.75
2018-04-07T22:20:06.730Z,15.64
2018-04-07T22:22:35.112Z,15.47
2018-04-07T22:25:07.036Z,15.45
2018-04-07T22:27:35.349Z,15.47
2018-04-07T22:30:08.059Z,15.43
2018-04-07T22:32:36.313Z,15.38
2018-04-07T22:35:07.825Z,15.30
2018-04-07T22:37:36.105Z,15.29
2018-04-07T22:40:06.214Z,15.33
2018-04-07T22:42:34.694Z,15.27
2018-04-07T22:45:06.928Z,15.33
2018-04-07T22:47:35.217Z,15.47
2018-04-07T22:50:07.043Z,15.47
2018-04-07T22:52:35.316Z,15.49
2018-04-07T22:55:07.366Z,15.41
2018-04-07T22:57:35.702Z,15.44
2018-04-07T23:00:07.831Z,15.43
2018-04-07T23:02:36.106Z,15.47
2018-04-07T23:05:06.192Z,15.35
2018-04-07T23:07:34.484Z,15.35
2018-04-07T23:10:09.602Z,15.40
2018-04-07T23:12:37.901Z,15.20
2018-04-07T23:15:06.184Z,15.15
2018-04-07T23:17:34.515Z,15.14
2018-04-07T23:20:09.841Z,14.91
2018-04-07T23:22:38.154Z,15.09
2018-04-07T23:25:06.480Z,14.98
2018-04-07T23:27:34.730Z,15.17
2018-04-07T23:30:08.877Z,15.14
2018-04-07T23:32:37.291Z,15.09
2018-04-07T23:35:06.397Z,14.98
2018-04-07T23:37:34.692Z,14.85
2018-04-07T23:40:06.782Z,14.67
2018-04-07T23:42:35.074Z,14.35
2018-04-07T23:45:07.187Z,14.34
2018-04-07T23:47:35.473Z,14.41
2018-04-07T23:50:06.117Z,14.65
2018-04-07T23:52:34.637Z,14.61
2018-04-07T23:55:06.930Z,14.51
2018-04-07T23:57:35.211Z,14.47
